createdAt,value
2018-09-29T00:02:20.754Z,97120.70
2018-09-29T00:04:51.511Z,97114.13
2018-09-29T00:07:22.253Z,97110.75
2018-09-29T00:09:51.893Z,97119.66
2018-09-29T00:12:22.874Z,97112.28
2018-09-29T00:14:52.561Z,97110.92
2018-09-29T00:17:22.408Z,97116.27
2018-09-29T00:19:54.362Z,97112.49
2018-09-29T00:22:23.996Z,97108.34
2018-09-29T00:24:54.636Z,97101.28
2018-09-29T00:27:25.690Z,97103.14
2018-09-29T00:29:55.552Z,97095.89
2018-09-29T00:32:25.324Z,97091.76
2018-09-29T00:34:57.015Z,97091.13
2018-09-29T00:37:27.857Z,97091.90
2018-09-29T00:39:58.914Z,97089.13
2018-09-29T00:42:28.533Z,97091.14
2018-09-29T00:44:58.770Z,97097.24
2018-09-29T00:47:30.266Z,97094.42
2018-09-29T00:50:01.318Z,97104.05
2018-09-29T00:52:31.427Z,97093.79
2018-09-29T00:55:01.167Z,97096.80
2018-09-29T00:57:31.916Z,97103.41
2018-09-29T01:00:01.578Z,97109.28
2018-09-29T01:02:31.760Z,97108.14
2018-09-29T01:05:02.390Z,97108.97
2018-09-29T01:07:32.945Z,97120.09
2018-09-29T01:10:03.076Z,97120.67
2018-09-29T01:12:32.809Z,97123.81
2018-09-29T01:15:02.610Z,97119.08
2018-09-29T01:17:33.416Z,97120.61
2018-09-29T01:20:03.126Z,97126.46
2018-09-29T01:22:33.264Z,97122.68
2018-09-29T01:25:03.468Z,97119.34
2018-09-29T01:27:33.154Z,97123.35
2018-09-29T01:30:02.856Z,97123.93
2018-09-29T01:32:33.121Z,97114.73
2018-09-29T01:35:04.600Z,97127.52
2018-09-29T01:37:34.329Z,97128.66
2018-09-29T01:40:04.651Z,97128.44
2018-09-29T01:42:34.366Z,97123.37
2018-09-29T01:45:04.077Z,97127.83
2018-09-29T01:47:34.422Z,97123.17
2018-09-29T01:50:04.649Z,97125.31
2018-09-29T01:52:34.426Z,97121.84
2018-09-29T01:55:06.213Z,97125.59
2018-09-29T01:57:35.979Z,97123.67
2018-09-29T02:00:05.678Z,97118.43
2018-09-29T02:02:35.545Z,97126.35
2018-09-29T02:05:05.341Z,97131.77
2018-09-29T02:07:35.099Z,97126.81
2018-09-29T02:10:04.922Z,97136.73
2018-09-29T02:12:41.491Z,97145.20
2018-09-29T02:15:11.126Z,97141.70
2018-09-29T02:17:41.553Z,97141.34
2018-09-29T02:20:12.545Z,97152.02
2018-09-29T02:22:43.010Z,97144.87
2018-09-29T02:25:13.366Z,97142.41
2018-09-29T02:27:43.534Z,97145.55
2018-09-29T02:30:13.347Z,97147.05
2018-09-29T02:32:44.050Z,97152.47
2018-09-29T02:35:14.233Z,97143.80
2018-09-29T02:37:46.637Z,97141.02
2018-09-29T02:40:17.476Z,97140.38
2018-09-29T02:42:47.234Z,97131.39
2018-09-29T02:45:19.254Z,97126.72
2018-09-29T02:47:48.915Z,97125.83
2018-09-29T02:50:19.326Z,97125.69
2018-09-29T02:52:48.962Z,97115.62
2018-09-29T02:55:20.332Z,97117.84
2018-09-29T02:57:50.242Z,97119.70
2018-09-29T03:00:23.192Z,97117.84
2018-09-29T03:02:52.846Z,97119.16
2018-09-29T03:05:22.580Z,97124.87
2018-09-29T03:07:52.373Z,97127.91
2018-09-29T03:10:22.785Z,97135.89
2018-09-29T03:12:52.459Z,97133.78
2018-09-29T03:15:22.198Z,97141.77
2018-09-29T03:17:54.939Z,97145.59
2018-09-29T03:20:24.606Z,97155.00
2018-09-29T03:22:54.354Z,97156.82
2018-09-29T03:25:24.413Z,97158.49
2018-09-29T03:27:54.709Z,97164.48
2018-09-29T03:30:24.431Z,97165.98
2018-09-29T03:32:54.066Z,97162.84
2018-09-29T03:35:23.687Z,97158.06
2018-09-29T03:37:53.386Z,97158.87
2018-09-29T03:40:23.039Z,97156.23
2018-09-29T03:42:53.221Z,97152.39
2018-09-29T03:45:22.873Z,97153.42
2018-09-29T03:47:52.545Z,97149.67
2018-09-29T03:50:23.851Z,97139.47
2018-09-29T03:52:53.772Z,97138.98
2018-09-29T03:55:24.522Z,97132.27
2018-09-29T03:57:54.619Z,97131.97
2018-09-29T04:00:24.430Z,97140.21
2018-09-29T04:02:54.916Z,97139.53
2018-09-29T04:05:25.946Z,97146.78
2018-09-29T04:07:56.145Z,97146.84
2018-09-29T04:10:27.566Z,97152.00
2018-09-29T04:12:57.360Z,97152.50
2018-09-29T04:15:27.201Z,97151.77
2018-09-29T04:17:57.730Z,97151.47
2018-09-29T04:20:28.338Z,97160.84
2018-09-29T04:22:58.697Z,97163.31
2018-09-29T04:25:28.418Z,97164.45
2018-09-29T04:27:59.370Z,97172.22
2018-09-29T04:30:29.156Z,97169.28
2018-09-29T04:32:58.837Z,97172.73
2018-09-29T04:35:29.229Z,97180.03
2018-09-29T04:37:58.890Z,97182.47
2018-09-29T04:40:29.494Z,97180.16
2018-09-29T04:43:00.805Z,97185.51
2018-09-29T04:45:30.582Z,97192.98
2018-09-29T04:48:00.201Z,97188.37
2018-09-29T04:50:29.970Z,97187.89
2018-09-29T04:52:59.644Z,97192.34
2018-09-29T04:55:30.016Z,97191.45
2018-09-29T04:58:00.337Z,97197.10
2018-09-29T05:00:31.437Z,97200.06
2018-09-29T05:03:01.759Z,97192.98
2018-09-29T05:05:31.420Z,97194.24
2018-09-29T05:08:01.330Z,97198.02
2018-09-29T05:10:31.062Z,97197.88
2018-09-29T05:13:03.142Z,97201.83
2018-09-29T05:15:33.769Z,97201.38
2018-09-29T05:18:04.220Z,97194.47
2018-09-29T05:20:33.929Z,97202.38
2018-09-29T05:23:04.005Z,97207.97
2018-09-29T05:25:33.683Z,97212.27
2018-09-29T05:28:06.655Z,97218.52
2018-09-29T05:30:40.420Z,97220.45
2018-09-29T05:33:11.964Z,97214.84
2018-09-29T05:35:41.630Z,97223.72
2018-09-29T05:38:12.253Z,97217.08
2018-09-29T05:40:43.086Z,97223.97
2018-09-29T05:43:14.205Z,97226.70
2018-09-29T05:45:44.865Z,97218.94
2018-09-29T05:48:15.409Z,97222.84
2018-09-29T05:50:45.311Z,97229.06
2018-09-29T05:53:15.950Z,97236.28
2018-09-29T05:55:47.285Z,97234.09
2018-09-29T05:58:23.189Z,97239.92
2018-09-29T06:00:53.402Z,97235.56
2018-09-29T06:03:25.516Z,97236.47
2018-09-29T06:05:56.499Z,97239.39
2018-09-29T06:08:27.339Z,97236.87
2018-09-29T06:10:58.654Z,97243.52
2018-09-29T06:13:30.801Z,97237.61
2018-09-29T06:16:03.224Z,97241.86
2018-09-29T06:18:33.840Z,97240.58
2018-09-29T06:21:09.980Z,97241.92
2018-09-29T06:23:41.294Z,97250.25
2018-09-29T06:26:13.386Z,97241.20
2018-09-29T06:28:43.482Z,97246.95
2018-09-29T06:31:14.063Z,97247.40
2018-09-29T06:33:43.753Z,97244.89
2018-09-29T06:36:13.861Z,97250.19
2018-09-29T06:38:44.259Z,97251.11
2018-09-29T06:41:15.907Z,97240.96
2018-09-29T06:43:54.700Z,97239.85
2018-09-29T06:46:24.397Z,97240.09
2018-09-29T06:48:54.071Z,97240.78
2018-09-29T06:51:24.762Z,97239.14
2018-09-29T06:53:54.866Z,97241.68
2018-09-29T06:56:25.929Z,97241.53
2018-09-29T06:58:57.007Z,97235.67
2018-09-29T07:01:28.030Z,97233.16
2018-09-29T07:04:01.996Z,97230.98
2018-09-29T07:06:32.499Z,97229.09
2018-09-29T07:09:03.300Z,97220.42
2018-09-29T07:11:33.105Z,97221.36
2018-09-29T07:14:05.362Z,97217.70
2018-09-29T07:16:37.697Z,97221.05
2018-09-29T07:19:08.754Z,97213.84
2018-09-29T07:21:39.862Z,97215.06
2018-09-29T07:24:10.542Z,97209.44
2018-09-29T07:26:40.655Z,97210.45
2018-09-29T07:29:11.193Z,97219.39
2018-09-29T07:31:42.433Z,97219.70
2018-09-29T07:34:12.526Z,97227.02
2018-09-29T07:36:43.865Z,97228.86
2018-09-29T07:39:14.016Z,97235.98
2018-09-29T07:41:44.418Z,97237.09
2018-09-29T07:44:14.828Z,97239.74
2018-09-29T07:46:47.674Z,97246.84
2018-09-29T07:49:19.746Z,97238.91
2018-09-29T07:51:52.475Z,97248.03
2018-09-29T07:54:25.099Z,97245.32
2018-09-29T07:56:56.041Z,97251.91
2018-09-29T07:59:28.289Z,97250.33
2018-09-29T08:02:03.379Z,97245.67
2018-09-29T08:04:39.964Z,97243.67
2018-09-29T08:07:12.299Z,97248.24
2018-09-29T08:09:42.812Z,97245.88
2018-09-29T08:12:13.061Z,97244.59
2018-09-29T08:14:50.471Z,97243.63
2018-09-29T08:17:39.556Z,97254.22
2018-09-29T08:20:10.152Z,97256.91
2018-09-29T08:22:41.816Z,97255.52
2018-09-29T08:25:16.363Z,97253.46
2018-09-29T08:27:48.190Z,97247.92
2018-09-29T08:30:20.728Z,97243.84
2018-09-29T08:32:51.901Z,97253.16
2018-09-29T08:35:22.864Z,97245.11
2018-09-29T08:37:55.303Z,97248.29
2018-09-29T08:40:25.436Z,97243.84
2018-09-29T08:43:08.034Z,97250.37
2018-09-29T08:45:39.645Z,97251.22
2018-09-29T08:48:11.448Z,97247.47
2018-09-29T08:50:42.409Z,97254.19
2018-09-29T08:53:17.416Z,97261.77
2018-09-29T08:55:47.594Z,97256.06
2018-09-29T08:58:18.193Z,97257.34
2018-09-29T09:00:50.514Z,97250.08
2018-09-29T09:03:26.648Z,97248.58
2018-09-29T09:05:59.390Z,97250.29
2018-09-29T09:08:32.297Z,97244.35
2018-09-29T09:11:02.605Z,97247.53
2018-09-29T09:13:33.661Z,97246.66
2018-09-29T09:16:06.185Z,97243.30
2018-09-29T09:18:37.338Z,97240.05
2018-09-29T09:21:08.618Z,97248.19
2018-09-29T09:23:46.946Z,97245.81
2018-09-29T09:26:21.065Z,97241.05
2018-09-29T09:28:51.421Z,97242.19
2018-09-29T09:31:22.744Z,97244.31
2018-09-29T09:33:52.855Z,97250.82
2018-09-29T09:36:23.781Z,97243.06
2018-09-29T09:38:54.651Z,97249.30
2018-09-29T09:41:27.228Z,97249.08
2018-09-29T09:44:02.503Z,97248.92
2018-09-29T09:46:33.413Z,97245.73
2018-09-29T09:49:05.616Z,97253.05
2018-09-29T09:51:36.628Z,97255.31
2018-09-29T09:54:08.129Z,97240.75
2018-09-29T09:56:43.313Z,97234.71
2018-09-29T09:59:13.521Z,97238.11
2018-09-29T10:01:48.683Z,97229.16
2018-09-29T10:04:18.795Z,97225.01
2018-09-29T10:06:51.959Z,97221.28
2018-09-29T10:09:22.987Z,97220.23
2018-09-29T10:11:53.620Z,97225.05
2018-09-29T10:14:24.189Z,97225.48
2018-09-29T10:16:56.659Z,97226.91
2018-09-29T10:19:26.759Z,97222.09
2018-09-29T10:21:58.310Z,97215.45
2018-09-29T10:24:28.490Z,97221.04
2018-09-29T10:26:58.285Z,97216.81
2018-09-29T10:29:31.367Z,97212.25
2018-09-29T10:32:02.096Z,97212.16
2018-09-29T10:34:33.654Z,97206.05
2018-09-29T10:37:05.090Z,97200.12
2018-09-29T10:39:35.252Z,97198.59
2018-09-29T10:42:06.864Z,97191.02
2018-09-29T10:44:37.530Z,97189.16
2018-09-29T10:47:08.244Z,97182.59
2018-09-29T10:49:38.169Z,97175.90
2018-09-29T10:52:09.821Z,97175.72
2018-09-29T10:54:39.703Z,97177.34
2018-09-29T10:57:09.369Z,97174.91
2018-09-29T10:59:39.381Z,97170.20
2018-09-29T11:02:11.254Z,97166.27
2018-09-29T11:04:42.263Z,97169.56
2018-09-29T11:07:14.378Z,97169.39
2018-09-29T11:09:44.155Z,97161.19
2018-09-29T11:12:14.650Z,97160.69
2018-09-29T11:14:45.836Z,97153.02
2018-09-29T11:17:17.144Z,97154.47
2018-09-29T11:19:49.536Z,97154.41
2018-09-29T11:22:20.214Z,97152.49
2018-09-29T11:24:56.592Z,97158.27
2018-09-29T11:27:27.362Z,97149.48
2018-09-29T11:29:58.599Z,97144.70
2018-09-29T11:32:30.944Z,97150.41
2018-09-29T11:35:02.580Z,97146.36
2018-09-29T11:37:34.241Z,97137.13
2018-09-29T11:40:04.557Z,97135.55
2018-09-29T11:42:35.666Z,97136.14
2018-09-29T11:45:06.501Z,97134.93
2018-09-29T11:47:40.623Z,97127.63
2018-09-29T11:50:13.085Z,97122.84
2018-09-29T11:52:46.415Z,97116.09
2018-09-29T11:55:16.812Z,97119.45
2018-09-29T11:57:47.449Z,97116.48
2018-09-29T12:00:17.502Z,97111.41
2018-09-29T12:02:50.194Z,97107.66
2018-09-29T12:05:19.805Z,97112.45
2018-09-29T12:07:50.297Z,97111.00
2018-09-29T12:10:24.638Z,97104.08
2018-09-29T12:12:56.043Z,97100.51
2018-09-29T12:15:26.104Z,97091.60
2018-09-29T12:17:58.893Z,97090.72
2018-09-29T12:20:29.337Z,97091.08
2018-09-29T12:22:59.053Z,97086.25
2018-09-29T12:25:28.725Z,97086.30
2018-09-29T12:27:58.403Z,97084.16
2018-09-29T12:30:29.861Z,97072.16
2018-09-29T12:33:03.856Z,97075.98
2018-09-29T12:35:35.943Z,97075.12
2018-09-29T12:38:08.854Z,97068.37
2018-09-29T12:40:40.530Z,97067.60
2018-09-29T12:43:10.175Z,97067.14
2018-09-29T12:45:41.309Z,97064.84
2018-09-29T12:48:11.929Z,97059.53
2018-09-29T12:50:42.623Z,97059.83
2018-09-29T12:53:12.261Z,97062.61
2018-09-29T12:55:43.370Z,97054.23
2018-09-29T12:58:15.861Z,97056.56
2018-09-29T13:00:46.524Z,97054.89
2018-09-29T13:03:18.570Z,97054.70
2018-09-29T13:05:48.581Z,97053.08
2018-09-29T13:08:20.445Z,97055.61
2018-09-29T13:10:50.325Z,97052.94
2018-09-29T13:13:20.046Z,97053.46
2018-09-29T13:15:51.441Z,97047.00
2018-09-29T13:18:23.078Z,97034.17
2018-09-29T13:20:52.875Z,97036.31
2018-09-29T13:23:26.651Z,97032.30
2018-09-29T13:25:56.594Z,97030.95
2018-09-29T13:28:26.865Z,97016.93
2018-09-29T13:30:57.186Z,97015.83
2018-09-29T13:33:31.693Z,97016.62
2018-09-29T13:36:09.790Z,97010.70
2018-09-29T13:38:45.368Z,97002.18
2018-09-29T13:41:15.353Z,97007.78
2018-09-29T13:43:45.474Z,97014.01
2018-09-29T13:46:17.521Z,97002.14
2018-09-29T13:48:48.530Z,96995.77
2018-09-29T13:51:18.753Z,96997.92
2018-09-29T13:53:48.700Z,96996.53
2018-09-29T13:56:18.419Z,96995.96
2018-09-29T13:58:48.110Z,96990.93
2018-09-29T14:01:23.607Z,96985.56
2018-09-29T14:03:59.349Z,96995.37
2018-09-29T14:06:28.988Z,96985.78
2018-09-29T14:08:59.529Z,96977.78
2018-09-29T14:11:29.403Z,96976.24
2018-09-29T14:14:02.704Z,96971.16
2018-09-29T14:16:35.065Z,96971.21
2018-09-29T14:19:05.347Z,96962.64
2018-09-29T14:21:37.193Z,96961.09
2018-09-29T14:24:16.324Z,96960.04
2018-09-29T14:26:46.756Z,96956.62
2018-09-29T14:29:17.622Z,96956.91
2018-09-29T14:31:49.613Z,96952.39
2018-09-29T14:34:24.955Z,96949.79
2018-09-29T14:36:55.794Z,96950.08
2018-09-29T14:39:25.488Z,96946.69
2018-09-29T14:41:55.366Z,96948.88
2018-09-29T14:44:35.286Z,96937.65
2018-09-29T14:47:04.970Z,96933.62
2018-09-29T14:49:35.075Z,96931.53
2018-09-29T14:52:08.417Z,96933.62
2018-09-29T14:58:10.476Z,96926.94
2018-09-29T15:00:42.097Z,96921.54
2018-09-29T15:03:16.180Z,96925.39
2018-09-29T15:05:50.092Z,96922.88
2018-09-29T15:08:20.546Z,96917.98
2018-09-29T15:10:52.359Z,96926.16
2018-09-29T15:13:23.914Z,96912.25
2018-09-29T15:15:57.970Z,96919.66
2018-09-29T15:18:31.392Z,96909.88
2018-09-29T15:21:02.418Z,96910.33
2018-09-29T15:23:35.180Z,96913.98
2018-09-29T15:26:06.896Z,96909.31
2018-09-29T15:28:37.632Z,96902.20
2018-09-29T15:31:08.454Z,96905.08
2018-09-29T15:33:39.446Z,96899.35
2018-09-29T15:36:09.392Z,96895.81
2018-09-29T15:38:41.845Z,96896.01
2018-09-29T15:41:13.633Z,96895.34
2018-09-29T15:43:44.768Z,96895.20
2018-09-29T15:46:17.436Z,96903.19
2018-09-29T15:48:49.465Z,96898.02
2018-09-29T15:51:20.266Z,96902.47
2018-09-29T15:53:51.573Z,96905.84
2018-09-29T15:56:23.157Z,96903.59
2018-09-29T15:58:53.540Z,96903.50
2018-09-29T16:01:25.326Z,96903.43
2018-09-29T16:03:56.907Z,96902.00
2018-09-29T16:06:31.492Z,96902.45
2018-09-29T16:09:08.007Z,96889.50
2018-09-29T16:11:40.302Z,96890.48
2018-09-29T16:14:10.363Z,96885.01
2018-09-29T16:16:44.042Z,96884.62
2018-09-29T16:19:14.648Z,96888.09
2018-09-29T16:21:46.498Z,96881.82
2018-09-29T16:24:17.574Z,96881.46
2018-09-29T16:26:50.615Z,96879.77
2018-09-29T16:29:23.800Z,96875.72
2018-09-29T16:31:54.357Z,96874.72
2018-09-29T16:34:27.043Z,96874.73
2018-09-29T16:36:57.047Z,96878.14
2018-09-29T16:39:28.639Z,96870.19
2018-09-29T16:42:00.651Z,96867.55
2018-09-29T16:44:30.816Z,96865.88
2018-09-29T16:47:08.447Z,96869.14
2018-09-29T16:49:39.326Z,96864.52
2018-09-29T16:52:09.418Z,96865.58
2018-09-29T16:54:41.547Z,96867.73
2018-09-29T16:57:12.663Z,96864.08
2018-09-29T16:59:44.785Z,96870.22
2018-09-29T17:02:17.483Z,96870.87
2018-09-29T17:04:52.448Z,96865.95
2018-09-29T17:07:22.679Z,96868.82
2018-09-29T17:09:54.480Z,96868.13
2018-09-29T17:12:26.382Z,96868.05
2018-09-29T17:14:57.371Z,96866.77
2018-09-29T17:17:28.690Z,96866.70
2018-09-29T17:19:59.482Z,96871.25
2018-09-29T17:22:29.755Z,96870.77
2018-09-29T17:25:00.204Z,96871.75
2018-09-29T17:27:31.361Z,96880.14
2018-09-29T17:30:04.590Z,96872.39
2018-09-29T17:32:35.822Z,96872.09
2018-09-29T17:35:07.863Z,96869.23
2018-09-29T17:37:40.964Z,96870.19
2018-09-29T17:40:12.256Z,96871.02
2018-09-29T17:42:49.518Z,96866.72
2018-09-29T17:45:21.239Z,96864.97
2018-09-29T17:47:56.497Z,96868.75
2018-09-29T17:50:29.431Z,96864.25
2018-09-29T17:53:01.204Z,96865.94
2018-09-29T17:55:33.029Z,96865.34
2018-09-29T17:58:04.377Z,96868.89
2018-09-29T18:00:34.449Z,96864.16
2018-09-29T18:03:06.073Z,96863.78
2018-09-29T18:05:36.620Z,96861.93
2018-09-29T18:08:08.209Z,96862.06
2018-09-29T18:10:38.769Z,96865.48
2018-09-29T18:13:11.051Z,96862.34
2018-09-29T18:15:45.451Z,96867.23
2018-09-29T18:18:16.804Z,96866.09
2018-09-29T18:20:48.414Z,96870.27
2018-09-29T18:23:18.738Z,96872.78
2018-09-29T18:25:50.665Z,96872.17
2018-09-29T18:28:26.274Z,96868.61
2018-09-29T18:30:59.403Z,96872.51
2018-09-29T18:33:37.469Z,96881.72
2018-09-29T18:36:10.112Z,96876.88
2018-09-29T18:38:41.367Z,96871.69
2018-09-29T18:41:12.417Z,96873.22
2018-09-29T18:43:43.239Z,96870.41
2018-09-29T18:46:14.324Z,96869.92
2018-09-29T18:48:50.254Z,96876.91
2018-09-29T18:51:20.617Z,96871.11
2018-09-29T18:53:51.496Z,96877.45
2018-09-29T18:56:23.311Z,96879.40
2018-09-29T18:58:54.964Z,96878.21
2018-09-29T19:01:25.412Z,96875.36
2018-09-29T19:03:58.439Z,96877.62
2018-09-29T19:09:08.612Z,96890.87
2018-09-29T19:11:41.606Z,96884.03
2018-09-29T19:14:13.418Z,96879.44
2018-09-29T19:16:48.809Z,96872.64
2018-09-29T19:21:59.466Z,96870.56
2018-09-29T19:24:30.473Z,96872.50
2018-09-29T19:27:09.040Z,96874.17
2018-09-29T19:29:43.343Z,96872.88
2018-09-29T19:32:18.235Z,96871.66
2018-09-29T19:34:57.582Z,96866.39
2018-09-29T19:37:32.531Z,96865.98
2018-09-29T19:40:05.340Z,96864.25
2018-09-29T19:42:41.718Z,96865.61
2018-09-29T19:45:13.825Z,96870.13
2018-09-29T19:47:49.787Z,96863.90
2018-09-29T19:50:24.281Z,96857.60
2018-09-29T19:52:57.263Z,96859.03
2018-09-29T19:55:29.785Z,96860.18
2018-09-29T19:58:03.745Z,96859.36
2018-09-29T20:00:39.528Z,96860.09
2018-09-29T20:03:12.772Z,96864.28
2018-09-29T20:05:46.428Z,96857.23
2018-09-29T20:08:18.398Z,96855.42
2018-09-29T20:10:51.429Z,96851.23
2018-09-29T20:13:50.084Z,96855.02
2018-09-29T20:16:19.937Z,96850.11
2018-09-29T20:18:51.430Z,96841.58
2018-09-29T20:21:24.426Z,96838.84
2018-09-29T20:23:56.150Z,96843.62
2018-09-29T20:26:27.916Z,96846.47
2018-09-29T20:29:12.581Z,96837.81
2018-09-29T20:31:44.417Z,96843.54
2018-09-29T20:34:15.479Z,96840.05
2018-09-29T20:36:45.751Z,96840.38
2018-09-29T20:39:16.769Z,96836.80
2018-09-29T20:41:47.816Z,96831.01
2018-09-29T20:44:20.346Z,96825.09
2018-09-29T20:46:53.190Z,96831.30
2018-09-29T20:49:24.002Z,96827.25
2018-09-29T20:51:56.598Z,96823.98
2018-09-29T20:54:27.490Z,96823.25
2018-09-29T20:57:01.641Z,96819.09
2018-09-29T20:59:33.979Z,96815.41
2018-09-29T21:02:04.662Z,96815.83
2018-09-29T21:04:36.849Z,96807.27
2018-09-29T21:07:06.678Z,96807.27
2018-09-29T21:09:38.045Z,96804.70
2018-09-29T21:12:09.498Z,96799.41
2018-09-29T21:14:39.402Z,96802.48
2018-09-29T21:17:09.962Z,96804.71
2018-09-29T21:19:41.407Z,96793.20
2018-09-29T21:22:11.081Z,96794.13
2018-09-29T21:24:41.667Z,96788.91
2018-09-29T21:27:13.288Z,96788.33
2018-09-29T21:29:42.996Z,96780.89
2018-09-29T21:32:13.864Z,96778.56
2018-09-29T21:34:44.463Z,96769.89
2018-09-29T21:37:14.305Z,96774.68
2018-09-29T21:39:46.523Z,96776.00
2018-09-29T21:42:21.856Z,96775.30
2018-09-29T21:44:53.323Z,96770.31
2018-09-29T21:47:23.947Z,96767.05
2018-09-29T21:49:56.486Z,96761.95
2018-09-29T21:52:26.299Z,96763.47
2018-09-29T21:54:56.142Z,96759.81
2018-09-29T21:57:26.799Z,96757.48
2018-09-29T21:59:56.489Z,96747.71
2018-09-29T22:02:29.345Z,96753.00
2018-09-29T22:04:59.194Z,96750.35
2018-09-29T22:07:30.815Z,96747.81
2018-09-29T22:10:01.114Z,96746.48
2018-09-29T22:12:31.213Z,96745.67
2018-09-29T22:15:05.921Z,96743.42
2018-09-29T22:17:36.261Z,96740.57
2018-09-29T22:20:06.349Z,96732.13
2018-09-29T22:22:36.670Z,96727.34
2018-09-29T22:25:08.772Z,96722.55
2018-09-29T22:27:39.783Z,96720.52
2018-09-29T22:30:11.021Z,96710.44
2018-09-29T22:32:42.282Z,96721.23
2018-09-29T22:35:11.954Z,96712.16
2018-09-29T22:37:41.650Z,96711.56
2018-09-29T22:40:13.506Z,96711.47
2018-09-29T22:42:44.500Z,96707.50
2018-09-29T22:45:14.219Z,96704.64
2018-09-29T22:47:43.852Z,96699.47
2018-09-29T22:50:14.871Z,96702.92
2018-09-29T22:52:44.518Z,96696.41
2018-09-29T22:55:15.117Z,96703.02
2018-09-29T22:57:44.998Z,96688.47
2018-09-29T23:00:14.626Z,96687.97
2018-09-29T23:02:44.605Z,96682.55
2018-09-29T23:05:14.242Z,96682.25
2018-09-29T23:07:44.765Z,96678.91
2018-09-29T23:10:15.373Z,96676.48
2018-09-29T23:12:45.480Z,96672.61
2018-09-29T23:15:15.730Z,96671.16
2018-09-29T23:17:51.436Z,96670.34
2018-09-29T23:20:35.238Z,96670.23
2018-09-29T23:23:29.245Z,96666.80
2018-09-29T23:26:00.350Z,96657.11
2018-09-29T23:28:30.206Z,96657.31
2018-09-29T23:31:01.914Z,96652.14
2018-09-29T23:33:31.628Z,96649.06
2018-09-29T23:36:01.317Z,96649.59
2018-09-29T23:38:31.821Z,96643.70
2018-09-29T23:41:02.604Z,96646.02
2018-09-29T23:43:33.950Z,96646.13
2018-09-29T23:46:03.629Z,96648.13
2018-09-29T23:48:50.561Z,96635.39
2018-09-29T23:51:22.050Z,96643.47
2018-09-29T23:53:56.231Z,96643.88
2018-09-29T23:56:26.602Z,96645.95
2018-09-29T23:58:57.432Z,96632.66
